Time;durP1;ratioP1;P1;durP2;ratioP2;P2;SDS_P1;SDS_P2;PMS_P1;PMS_P2;Temp;Humidity;BMP_temperature;BMP_pressure;BME280_temperature;BME280_humidity;BME280_pressure;Samples;Min_cycle;Max_cycle;Signal;HPM_P1;HPM_P2
2023/08/14 00:01:54;;;;;;;36.33;3.73;;;;;;;24.31;61.67;99560.09;7309466;19;129279;-40
2023/08/14 00:04:19;;;;;;;44.43;4.23;;;;;;;24.32;61.62;99559.13;7305253;19;129337;-46
2023/08/14 00:06:45;;;;;;;70.63;5.40;;;;;;;24.32;61.25;99561.75;7308730;19;129320;-35
2023/08/14 00:09:10;;;;;;;45.23;4.20;;;;;;;24.33;61.59;99565.19;7305225;19;129103;-34
2023/08/14 00:11:35;;;;;;;37.15;3.90;;;;;;;24.32;61.28;99561.75;7309076;19;129830;-37
2023/08/14 00:14:01;;;;;;;56.23;4.97;;;;;;;24.33;61.56;99562.56;7307610;19;129591;-40
2023/08/14 00:16:26;;;;;;;40.80;3.73;;;;;;;24.33;61.12;99568.63;7306112;19;129062;-41
2023/08/14 00:18:53;;;;;;;29.20;3.00;;;;;;;24.33;60.83;99563.38;7305372;19;129644;-33
2023/08/14 00:21:19;;;;;;;52.28;4.80;;;;;;;24.32;61.28;99564.38;7306654;19;129271;-41
2023/08/14 00:23:44;;;;;;;15.33;2.30;;;;;;;24.33;60.84;99568.63;7307452;19;130429;-46
2023/08/14 00:26:12;;;;;;;35.60;3.80;;;;;;;24.33;61.24;99566.00;7306143;19;129394;-40
2023/08/14 00:28:37;;;;;;;31.33;3.20;;;;;;;24.33;61.35;99566.00;7308073;19;129138;-36
2023/08/14 00:31:02;;;;;;;7.83;1.90;;;;;;;24.33;61.58;99579.16;7308466;19;130470;-40
2023/08/14 00:33:28;;;;;;;59.07;4.77;;;;;;;24.34;61.30;99570.31;7307048;19;131477;-38
2023/08/14 00:35:53;;;;;;;43.20;3.87;;;;;;;24.34;61.31;99575.56;7307154;19;129566;-34
2023/08/14 00:38:18;;;;;;;68.43;5.83;;;;;;;24.35;61.30;99571.94;7305545;19;130385;-40
2023/08/14 00:40:44;;;;;;;31.97;3.33;;;;;;;24.34;61.35;99579.97;7306349;19;130332;-37
2023/08/14 00:43:09;;;;;;;41.40;4.03;;;;;;;24.34;60.99;99575.56;7308900;19;129573;-34
2023/08/14 00:45:35;;;;;;;48.57;4.07;;;;;;;24.34;61.53;99586.06;7306005;19;129844;-43
2023/08/14 00:48:01;;;;;;;39.30;3.80;;;;;;;24.35;61.17;99579.81;7307597;19;129162;-35
2023/08/14 00:50:26;;;;;;;61.53;5.63;;;;;;;24.35;60.89;99585.06;7305840;19;129282;-37
2023/08/14 00:52:57;;;;;;;47.47;4.13;;;;;;;24.35;61.49;99577.19;7308545;19;130800;-39
2023/08/14 00:55:26;;;;;;;63.95;5.38;;;;;;;24.35;60.89;99585.06;7301541;19;129113;-43
2023/08/14 00:57:52;;;;;;;37.92;3.70;;;;;;;24.33;61.21;99579.16;7306904;19;129260;-38
2023/08/14 01:00:17;;;;;;;26.63;3.05;;;;;;;24.35;61.35;99587.72;7307556;19;129603;-45
2023/08/14 01:02:43;;;;;;;21.65;2.58;;;;;;;24.36;61.28;99588.53;7307037;19;129552;-37
2023/08/14 01:05:09;;;;;;;34.07;3.17;;;;;;;24.34;61.00;99586.06;7303703;19;130125;-35
2023/08/14 01:07:35;;;;;;;66.97;5.60;;;;;;;24.27;61.44;99578.97;7305760;19;129631;-40
2023/08/14 01:10:02;;;;;;;30.23;3.25;;;;;;;24.35;61.66;99592.97;7308015;19;130166;-38
2023/08/14 01:12:44;;;;;;;73.63;5.88;;;;;;;24.37;61.50;99600.69;7309937;19;130872;-39
2023/08/14 01:15:15;;;;;;;44.65;3.95;;;;;;;24.35;61.08;99592.97;7310149;19;129786;-38
2023/08/14 01:17:46;;;;;;;102.63;7.85;;;;;;;24.35;61.88;99592.97;7308573;19;131124;-33
2023/08/14 01:20:15;;;;;;;27.25;3.35;;;;;;;24.34;61.40;99595.75;7311489;19;129687;-40
2023/08/14 01:22:55;;;;;;;60.97;5.05;;;;;;;24.35;61.70;99592.97;7311800;19;131453;-37
2023/08/14 01:25:31;;;;;;;41.25;3.92;;;;;;;24.34;61.54;99601.84;7312745;19;129640;-40
2023/08/14 01:28:01;;;;;;;32.83;3.33;;;;;;;24.31;61.59;99603.94;7314976;19;129148;-34
2023/08/14 01:30:27;;;;;;;40.45;3.65;;;;;;;24.30;61.24;99600.50;7312078;19;129535;-42
2023/08/14 01:32:53;;;;;;;58.90;4.97;;;;;;;24.31;61.81;99612.63;7312748;19;129665;-41
2023/08/14 01:35:20;;;;;;;35.73;3.33;;;;;;;24.30;62.08;99610.16;7309884;19;129502;-39
2023/08/14 01:37:51;;;;;;;64.45;5.45;;;;;;;24.27;61.90;99603.44;7311098;19;129782;-42
2023/08/14 01:40:21;;;;;;;58.40;4.72;;;;;;;24.28;62.28;99599.81;7312902;19;130211;-38
2023/08/14 01:42:55;;;;;;;51.80;4.68;;;;;;;24.27;61.68;99603.44;7313999;19;129688;-36
2023/08/14 01:45:23;;;;;;;29.35;3.10;;;;;;;24.27;61.75;99599.97;7312079;19;129289;-34
2023/08/14 01:47:51;;;;;;;56.30;5.13;;;;;;;24.28;61.79;99604.25;7311017;19;129311;-38
2023/08/14 01:50:18;;;;;;;31.17;3.28;;;;;;;24.27;61.90;99608.69;7310828;19;129116;-41
2023/08/14 01:52:43;;;;;;;50.65;4.15;;;;;;;24.26;61.84;99599.16;7311220;19;129618;-39
2023/08/14 01:55:08;;;;;;;50.90;4.57;;;;;;;24.30;61.71;99600.50;7307279;19;130549;-35
2023/08/14 01:57:34;;;;;;;32.30;3.47;;;;;;;24.32;61.72;99603.78;7312774;19;129986;-38
2023/08/14 01:59:59;;;;;;;52.20;5.27;;;;;;;24.33;62.22;99605.44;7313119;19;130693;-40
2023/08/14 02:02:25;;;;;;;41.80;4.27;;;;;;;24.31;62.00;99602.13;7311831;19;129111;-35
2023/08/14 02:04:50;;;;;;;42.47;4.23;;;;;;;24.20;61.81;99589.28;7311667;19;129797;-43
2023/08/14 02:07:16;;;;;;;57.20;5.27;;;;;;;24.27;62.86;99608.69;7308722;19;131028;-38
2023/08/14 02:09:42;;;;;;;47.43;4.43;;;;;;;24.24;62.35;99613.44;7313151;19;130133;-39
2023/08/14 02:12:08;;;;;;;62.47;5.57;;;;;;;24.24;62.80;99616.88;7310408;19;129341;-42
2023/08/14 02:14:34;;;;;;;41.38;4.75;;;;;;;24.26;62.63;99609.66;7310404;19;129284;-41
2023/08/14 02:16:59;;;;;;;32.90;3.37;;;;;;;24.27;62.94;99606.06;7312654;19;129268;-37
2023/08/14 02:19:24;;;;;;;62.80;5.40;;;;;;;24.26;62.33;99595.72;7312391;19;129560;-39
2023/08/14 02:21:50;;;;;;;68.13;5.83;;;;;;;24.25;63.01;99592.25;7306663;19;129384;-45
2023/08/14 02:24:15;;;;;;;46.03;5.00;;;;;;;24.27;62.43;99594.72;7307419;19;129806;-34
2023/08/14 02:26:40;;;;;;;33.07;3.50;;;;;;;24.27;62.45;99592.94;7310354;19;129140;-40
2023/08/14 02:29:06;;;;;;;49.00;4.30;;;;;;;24.28;62.47;99597.19;7310919;19;129345;-36
2023/08/14 02:31:31;;;;;;;60.33;5.73;;;;;;;24.23;62.55;99575.81;7311652;19;130402;-37
2023/08/14 02:33:58;;;;;;;61.37;5.73;;;;;;;24.29;62.55;99593.59;7312248;19;129099;-36
2023/08/14 02:36:24;;;;;;;48.58;4.85;;;;;;;24.30;62.23;99595.22;7310159;19;129213;-41
2023/08/14 02:38:49;;;;;;;65.10;5.63;;;;;;;24.19;62.37;99582.38;7309725;19;129162;-41
2023/08/14 02:41:15;;;;;;;68.85;6.25;;;;;;;24.31;62.55;99591.63;7313340;19;129324;-39
2023/08/14 02:43:40;;;;;;;62.53;5.37;;;;;;;24.32;62.29;99603.78;7308818;19;131143;-44
2023/08/14 02:46:05;;;;;;;28.13;3.07;;;;;;;24.31;62.75;99602.13;7310757;19;131313;-39
2023/08/14 02:48:31;;;;;;;44.10;4.30;;;;;;;24.31;62.28;99602.13;7308729;19;129227;-43
2023/08/14 02:50:56;;;;;;;25.58;3.15;;;;;;;24.22;61.77;99591.75;7312393;19;130213;-37
2023/08/14 02:53:21;;;;;;;37.47;3.47;;;;;;;24.32;62.42;99614.31;7309816;19;129032;-38
2023/08/14 02:55:53;;;;;;;62.40;5.63;;;;;;;24.33;62.69;99609.84;7306662;19;128981;-43
2023/08/14 02:58:18;;;;;;;44.35;4.45;;;;;;;24.25;61.78;99605.38;7308575;19;129394;-39
2023/08/14 03:00:48;;;;;;;42.60;4.27;;;;;;;24.32;62.46;99618.72;7309658;19;130083;-43
2023/08/14 03:03:14;;;;;;;24.77;2.92;;;;;;;24.30;62.33;99613.63;7311794;19;130228;-36
2023/08/14 03:05:40;;;;;;;36.77;3.80;;;;;;;24.32;62.37;99623.97;7309221;19;129391;-45
2023/08/14 03:08:06;;;;;;;111.63;8.57;;;;;;;24.21;62.34;99598.78;7307119;19;130065;-38
2023/08/14 03:10:31;;;;;;;39.03;3.87;;;;;;;24.31;61.71;99609.22;7311875;19;129378;-36
2023/08/14 03:12:57;;;;;;;48.17;4.53;;;;;;;24.31;61.96;99607.38;7309299;19;129078;-38
2023/08/14 03:15:23;;;;;;;32.23;3.20;;;;;;;24.29;61.42;99604.13;7307820;19;130538;-33
2023/08/14 03:17:48;;;;;;;41.10;3.60;;;;;;;24.21;62.14;99584.84;7310555;19;130087;-37
2023/08/14 03:20:14;;;;;;;55.53;5.07;;;;;;;24.28;61.84;99591.94;7308808;19;131352;-37
2023/08/14 03:22:39;;;;;;;47.47;4.27;;;;;;;24.21;61.89;99580.41;7308603;19;128835;-44
2023/08/14 03:25:05;;;;;;;30.47;3.33;;;;;;;24.27;62.26;99595.56;7308736;19;129278;-38
2023/08/14 03:27:31;;;;;;;59.37;5.37;;;;;;;24.27;62.25;99606.06;7307231;19;129493;-36
2023/08/14 03:29:56;;;;;;;17.30;2.67;;;;;;;24.27;62.03;99600.81;7311308;19;130071;-37
2023/08/14 03:32:22;;;;;;;55.63;4.87;;;;;;;24.28;61.67;99602.44;7310738;19;129527;-34
2023/08/14 03:34:47;;;;;;;41.80;3.73;;;;;;;24.29;61.51;99613.78;7305071;19;129094;-36
2023/08/14 03:37:12;;;;;;;32.67;3.27;;;;;;;24.26;61.60;99609.66;7310978;19;128960;-37
2023/08/14 03:39:38;;;;;;;50.20;4.70;;;;;;;24.28;61.87;99612.94;7307127;19;129680;-33
2023/08/14 03:42:03;;;;;;;44.33;4.20;;;;;;;24.29;61.98;99604.13;7310382;19;128985;-35
2023/08/14 03:44:28;;;;;;;136.73;10.53;;;;;;;24.30;61.81;99599.66;7308348;19;129154;-43
2023/08/14 03:46:54;;;;;;;60.97;5.60;;;;;;;24.29;61.47;99614.63;7310670;19;129539;-38
2023/08/14 03:49:19;;;;;;;46.40;4.23;;;;;;;24.29;61.80;99612.00;7308264;19;130341;-37
2023/08/14 03:51:44;;;;;;;45.90;4.83;;;;;;;24.29;61.50;99614.63;7308628;19;130133;-40
2023/08/14 03:54:10;;;;;;;42.97;4.50;;;;;;;24.29;62.18;99619.88;7307569;19;130497;-39
2023/08/14 03:56:35;;;;;;;34.33;3.60;;;;;;;24.31;61.62;99617.09;7308886;19;130412;-40
2023/08/14 03:59:01;;;;;;;30.57;3.47;;;;;;;24.30;61.64;99616.25;7303340;19;130988;-39
2023/08/14 04:01:26;;;;;;;45.63;4.20;;;;;;;24.30;61.90;99618.06;7306042;19;129638;-38
2023/08/14 04:03:52;;;;;;;75.03;6.30;;;;;;;24.28;61.99;99612.94;7308649;19;129691;-38
2023/08/14 04:06:19;;;;;;;15.27;2.57;;;;;;;24.30;61.76;99616.25;7306136;19;129935;-38
2023/08/14 04:08:44;;;;;;;25.83;2.83;;;;;;;24.29;61.52;99619.88;7306457;19;130252;-40
2023/08/14 04:11:09;;;;;;;42.33;3.77;;;;;;;24.29;62.21;99619.03;7305126;19;129007;-34
2023/08/14 04:13:35;;;;;;;48.70;4.73;;;;;;;24.30;61.82;99621.50;7309471;19;128928;-37
2023/08/14 04:16:03;;;;;;;35.37;3.90;;;;;;;24.29;61.89;99614.63;7302799;19;129788;-35
2023/08/14 04:18:29;;;;;;;36.80;3.63;;;;;;;24.18;62.20;99601.72;7305516;19;129620;-38
2023/08/14 04:20:55;;;;;;;52.78;4.80;;;;;;;24.28;61.59;99618.22;7308879;19;129079;-37
2023/08/14 04:23:22;;;;;;;63.80;5.20;;;;;;;24.27;61.86;99627.09;7302666;19;131986;-33
2023/08/14 04:25:48;;;;;;;32.10;3.33;;;;;;;24.27;61.52;99623.63;7306379;19;131014;-34
2023/08/14 04:28:13;;;;;;;41.90;4.10;;;;;;;24.28;61.88;99618.22;7306234;19;130355;-39
2023/08/14 04:30:38;;;;;;;50.33;4.30;;;;;;;24.29;62.01;99625.13;7309644;19;129685;-37
2023/08/14 04:33:04;;;;;;;49.47;4.70;;;;;;;24.28;62.16;99626.09;7306699;19;130019;-42
2023/08/14 04:35:29;;;;;;;50.60;4.80;;;;;;;24.28;61.54;99626.09;7303598;19;130138;-38
2023/08/14 04:37:54;;;;;;;136.57;10.37;;;;;;;24.28;61.76;99626.09;7304957;19;129931;-43
2023/08/14 04:40:20;;;;;;;57.53;4.77;;;;;;;24.28;61.58;99623.47;7307296;19;129385;-40
2023/08/14 04:42:45;;;;;;;12.50;2.40;;;;;;;24.28;61.78;99631.34;7307979;19;130262;-40
2023/08/14 04:45:11;;;;;;;42.73;3.97;;;;;;;24.28;61.59;99623.47;7305090;19;129693;-40
2023/08/14 04:47:36;;;;;;;38.20;3.80;;;;;;;24.28;61.40;99626.09;7303581;19;131388;-39
2023/08/14 04:50:02;;;;;;;80.27;6.50;;;;;;;24.27;61.37;99626.25;7306470;19;129267;-36
2023/08/14 04:52:27;;;;;;;51.17;4.53;;;;;;;24.19;61.66;99608.66;7305776;19;129643;-49
2023/08/14 04:54:52;;;;;;;33.63;3.50;;;;;;;24.29;61.84;99625.13;7302225;19;129587;-43
2023/08/14 04:57:18;;;;;;;28.77;2.97;;;;;;;24.29;61.69;99625.13;7305532;19;130464;-33
2023/08/14 04:59:43;;;;;;;62.10;5.53;;;;;;;24.27;61.61;99616.56;7302760;19;129252;-34
2023/08/14 05:02:09;;;;;;;32.75;3.83;;;;;;;24.28;61.80;99612.94;7306404;19;129968;-37
2023/08/14 05:04:34;;;;;;;124.45;9.93;;;;;;;24.29;61.79;99608.53;7302484;19;130237;-34
2023/08/14 05:06:59;;;;;;;58.57;4.90;;;;;;;24.30;62.06;99615.44;7302932;19;129522;-34
2023/08/14 05:09:25;;;;;;;38.90;3.83;;;;;;;24.29;61.95;99611.16;7301567;19;129677;-44
2023/08/14 05:11:50;;;;;;;26.37;3.40;;;;;;;24.26;61.61;99608.84;7302783;19;131023;-38
2023/08/14 05:14:18;;;;;;;39.63;3.93;;;;;;;24.19;61.69;99602.56;7297707;19;129613;-38
2023/08/14 05:16:47;;;;;;;64.28;5.25;;;;;;;24.25;61.94;99612.44;7305035;19;129273;-37
2023/08/14 05:19:12;;;;;;;38.13;3.58;;;;;;;24.26;61.72;99617.53;7301007;19;129960;-38
2023/08/14 05:21:37;;;;;;;53.00;5.03;;;;;;;24.28;61.74;99612.94;7302795;19;129996;-40
2023/08/14 05:24:03;;;;;;;39.83;3.93;;;;;;;24.28;61.63;99610.31;7300117;19;130204;-40
2023/08/14 05:26:28;;;;;;;51.53;4.50;;;;;;;24.29;61.97;99617.25;7301683;19;129786;-36
2023/08/14 05:28:53;;;;;;;96.13;7.87;;;;;;;24.30;61.88;99610.16;7295996;19;130439;-43
2023/08/14 05:31:19;;;;;;;42.80;3.93;;;;;;;24.26;61.93;99609.66;7299787;19;131955;-32
2023/08/14 05:33:44;;;;;;;88.57;6.73;;;;;;;24.31;61.12;99620.53;7291784;19;131373;-43
2023/08/14 05:36:10;;;;;;;93.17;7.50;;;;;;;24.31;61.32;99622.34;7287419;19;129608;-39
2023/08/14 05:38:35;;;;;;;31.70;3.40;;;;;;;24.31;61.60;99614.47;7303425;19;132212;-40
2023/08/14 05:41:01;;;;;;;167.23;12.47;;;;;;;24.31;61.70;99623.16;7298657;19;129900;-47
2023/08/14 05:43:26;;;;;;;77.77;6.73;;;;;;;24.29;61.44;99614.63;7299758;19;129731;-42
2023/08/14 05:45:51;;;;;;;85.80;6.33;;;;;;;24.30;61.95;99616.25;7300121;19;129597;-38
2023/08/14 05:48:17;;;;;;;55.47;5.27;;;;;;;24.32;61.45;99613.47;7295353;19;130385;-37
2023/08/14 05:50:42;;;;;;;69.60;5.83;;;;;;;24.31;61.14;99606.56;7302201;19;130212;-37
2023/08/14 05:53:08;;;;;;;53.17;4.97;;;;;;;24.29;61.08;99604.13;7301196;19;129004;-35
2023/08/14 05:55:35;;;;;;;75.67;6.13;;;;;;;24.26;61.81;99601.78;7299618;19;129498;-36
2023/08/14 05:58:02;;;;;;;39.47;3.95;;;;;;;24.30;62.02;99615.44;7301094;19;129843;-40
2023/08/14 06:00:28;;;;;;;;;;;;;;;24.42;61.81;99608.91;7314148;19;129748;-37
2023/08/14 06:02:54;;;;;;;170.63;13.93;;;;;;;24.33;61.48;99596.72;7308210;19;129738;-36
2023/08/14 06:05:20;;;;;;;76.67;9.00;;;;;;;24.32;62.02;99593.28;7310334;19;130950;-37
2023/08/14 06:07:47;;;;;;;105.73;11.93;;;;;;;24.34;61.86;99601.00;7310606;19;129545;-38
2023/08/14 06:10:13;;;;;;;83.00;10.05;;;;;;;24.34;62.23;99606.25;7312311;19;129798;-41
2023/08/14 06:12:38;;;;;;;66.67;8.10;;;;;;;24.33;62.06;99600.16;7310893;19;129203;-38
2023/08/14 06:15:04;;;;;;;100.77;10.53;;;;;;;24.23;62.35;99583.69;7307317;19;130166;-45
2023/08/14 06:17:32;;;;;;;75.97;7.97;;;;;;;24.36;62.27;99599.84;7310158;19;130100;-37
2023/08/14 06:19:58;;;;;;;80.20;8.63;;;;;;;24.35;62.09;99606.09;7310064;19;131588;-44
2023/08/14 06:22:23;;;;;;;72.68;7.82;;;;;;;24.38;61.45;99611.03;7309157;19;132939;-40
2023/08/14 06:24:48;;;;;;;58.57;7.40;;;;;;;24.37;61.94;99616.44;7310160;19;129919;-43
2023/08/14 06:27:14;;;;;;;103.47;10.80;;;;;;;24.39;61.78;99607.41;7307751;19;129384;-38
2023/08/14 06:29:39;;;;;;;80.70;8.27;;;;;;;24.39;62.33;99607.41;7311474;19;129265;-37
2023/08/14 06:32:05;;;;;;;68.97;10.07;;;;;;;24.38;62.19;99603.16;7310268;19;129310;-37
2023/08/14 06:34:31;;;;;;;137.52;13.98;;;;;;;24.32;61.02;99597.69;7310683;19;130382;-40
2023/08/14 06:36:56;;;;;;;66.37;7.97;;;;;;;24.37;62.72;99596.25;7312266;19;129540;-37
2023/08/14 06:39:22;;;;;;;94.60;9.67;;;;;;;24.25;62.63;99604.56;7311634;19;129682;-42
2023/08/14 06:41:47;;;;;;;77.15;8.60;;;;;;;24.35;62.69;99598.22;7310539;19;131533;-38
2023/08/14 06:44:12;;;;;;;91.33;8.37;;;;;;;24.34;62.57;99586.06;7310342;19;129931;-38
2023/08/14 06:46:38;;;;;;;80.00;7.77;;;;;;;24.44;62.88;99586.75;7308739;19;129407;-38
2023/08/14 06:49:04;;;;;;;38.83;5.83;;;;;;;24.45;62.54;99583.16;7310394;19;128735;-38
2023/08/14 06:51:31;;;;;;;108.60;10.27;;;;;;;24.35;62.98;99565.84;7307086;19;130856;-41
2023/08/14 06:53:56;;;;;;;53.42;6.70;;;;;;;24.45;62.93;99572.63;7311093;19;129408;-39
2023/08/14 06:56:22;;;;;;;68.83;7.67;;;;;;;24.47;62.29;99572.47;7306909;19;129806;-45
2023/08/14 06:58:47;;;;;;;39.03;5.63;;;;;;;24.46;62.23;99582.16;7310160;19;129508;-40
2023/08/14 07:01:12;;;;;;;78.20;7.97;;;;;;;24.49;62.68;99586.28;7310483;19;129427;-44
2023/08/14 07:03:38;;;;;;;45.87;6.10;;;;;;;24.48;62.37;99585.47;7309276;19;129612;-36
2023/08/14 07:06:03;;;;;;;39.60;5.70;;;;;;;24.45;62.48;99572.63;7308608;19;129026;-39
2023/08/14 07:08:29;;;;;;;62.67;7.10;;;;;;;24.39;62.82;99568.00;7306855;19;128886;-38
2023/08/14 07:10:54;;;;;;;57.30;5.50;;;;;;;24.48;62.78;99581.19;7310506;19;129617;-37
2023/08/14 07:13:21;;;;;;;66.13;7.03;;;;;;;24.48;62.58;99573.31;7308052;19;129869;-42
2023/08/14 07:15:47;;;;;;;57.60;5.95;;;;;;;24.48;62.66;99578.56;7304635;19;129354;-40
2023/08/14 07:18:14;;;;;;;69.70;5.87;;;;;;;24.48;62.17;99577.56;7303110;19;129994;-35
2023/08/14 07:20:40;;;;;;;73.43;7.03;;;;;;;24.46;62.53;99576.91;7307718;19;130326;-38
2023/08/14 07:23:06;;;;;;;32.53;4.50;;;;;;;24.48;63.21;99567.06;7309452;19;129720;-44
2023/08/14 07:25:31;;;;;;;53.17;6.00;;;;;;;24.48;62.25;99572.31;7305622;19;129140;-40
2023/08/14 07:27:57;;;;;;;61.03;6.03;;;;;;;24.47;62.75;99572.47;7308097;19;128741;-37
2023/08/14 07:30:22;;;;;;;50.57;7.07;;;;;;;24.48;61.98;99573.31;7312237;19;130072;-41
2023/08/14 07:32:48;;;;;;;67.80;8.63;;;;;;;24.49;62.04;99571.31;7304371;19;132213;-39
2023/08/14 07:35:13;;;;;;;36.67;5.97;;;;;;;24.48;62.13;99572.31;7302595;19;129994;-44
2023/08/14 07:37:39;;;;;;;83.17;9.00;;;;;;;24.48;62.09;99571.47;7307535;19;131756;-37
2023/08/14 07:40:06;;;;;;;46.47;6.33;;;;;;;24.49;62.39;99567.91;7311526;19;129988;-46
2023/08/14 07:42:32;;;;;;;35.28;6.43;;;;;;;24.40;62.88;99558.31;7308045;19;129426;-39
2023/08/14 07:44:57;;;;;;;64.60;9.07;;;;;;;24.49;62.86;99571.31;7308270;19;129350;-36
2023/08/14 07:47:22;;;;;;;75.83;9.67;;;;;;;24.51;62.80;99554.59;7309920;19;129860;-40
2023/08/14 07:49:48;;;;;;;61.97;10.27;;;;;;;24.48;62.39;99556.53;7309401;19;129151;-42
2023/08/14 07:52:13;;;;;;;49.33;9.87;;;;;;;24.39;62.20;99546.97;7309880;19;130191;-36
2023/08/14 07:54:39;;;;;;;72.27;11.57;;;;;;;24.49;62.47;99558.19;7305197;19;129224;-41
2023/08/14 07:57:04;;;;;;;56.87;9.60;;;;;;;24.49;62.28;99563.44;7307785;19;129010;-42
2023/08/14 07:59:29;;;;;;;77.32;12.65;;;;;;;24.48;62.61;99560.16;7309122;19;129298;-37
2023/08/14 08:01:55;;;;;;;69.43;13.50;;;;;;;24.53;62.43;99563.16;7307847;19;130061;-39
2023/08/14 08:04:20;;;;;;;71.73;12.93;;;;;;;24.55;62.67;99563.78;7308492;19;129380;-39
2023/08/14 08:06:45;;;;;;;73.17;13.57;;;;;;;24.56;62.24;99560.19;7307879;19;129112;-40
2023/08/14 08:09:12;;;;;;;56.83;13.40;;;;;;;24.55;62.06;99562.00;7307573;19;129627;-38
2023/08/14 08:11:37;;;;;;;49.20;12.52;;;;;;;24.52;62.53;99564.94;7307784;19;129300;-41
2023/08/14 08:14:05;;;;;;;83.97;13.70;;;;;;;24.51;62.26;99570.34;7306919;19;129097;-39
2023/08/14 08:16:34;;;;;;;65.15;12.55;;;;;;;24.48;61.99;99566.22;7301118;19;130138;-38
2023/08/14 08:19:01;;;;;;;98.43;14.48;;;;;;;24.38;62.31;99545.34;7305222;19;129532;-38
2023/08/14 08:21:27;;;;;;;110.10;15.02;;;;;;;24.40;62.06;99548.63;7301732;19;130298;-41
2023/08/14 08:23:52;;;;;;;92.47;14.57;;;;;;;24.45;62.06;99567.38;7304408;19;129739;-43
2023/08/14 08:26:17;;;;;;;43.07;10.50;;;;;;;24.42;62.29;99551.94;7307816;19;129212;-46
2023/08/14 08:28:43;;;;;;;55.22;11.60;;;;;;;24.48;61.91;99567.06;7305074;19;129264;-39
2023/08/14 08:31:08;;;;;;;55.57;11.23;;;;;;;24.41;61.97;99545.03;7306327;19;129293;-37
2023/08/14 08:33:34;;;;;;;153.17;17.77;;;;;;;24.48;62.50;99553.09;7305134;19;130045;-37
2023/08/14 08:35:59;;;;;;;72.83;12.47;;;;;;;24.48;62.49;99546.03;7304333;19;129459;-42
2023/08/14 08:38:24;;;;;;;44.67;9.80;;;;;;;24.46;61.91;99541.94;7307171;19;130528;-41
2023/08/14 08:40:51;;;;;;;56.10;10.23;;;;;;;24.46;62.60;99542.72;7307730;19;129557;-38
2023/08/14 08:43:19;;;;;;;79.90;13.10;;;;;;;24.44;62.35;99544.69;7305283;19;131917;-36
2023/08/14 08:45:49;;;;;;;64.38;10.38;;;;;;;24.37;62.35;99525.31;7305924;19;129444;-40
2023/08/14 08:48:18;;;;;;;80.82;11.77;;;;;;;24.44;62.66;99539.44;7306790;19;131281;-40
2023/08/14 08:50:44;;;;;;;39.60;9.20;;;;;;;24.44;62.49;99544.69;7302820;19;129480;-37
2023/08/14 08:53:10;;;;;;;;;;;;;;;24.58;62.55;99539.84;7307579;19;131395;-42
2023/08/14 08:55:36;;;;;;;62.05;10.77;;;;;;;24.48;62.08;99546.03;7300112;19;130917;-39
2023/08/14 08:58:03;;;;;;;64.88;10.82;;;;;;;24.38;62.39;99524.31;7306230;19;130690;-38
2023/08/14 09:00:29;;;;;;;47.17;9.23;;;;;;;24.47;62.20;99535.69;7307949;19;130211;-39
2023/08/14 09:02:54;;;;;;;58.03;9.87;;;;;;;24.46;62.43;99526.97;7309630;19;130413;-40
2023/08/14 09:05:20;;;;;;;90.87;12.93;;;;;;;24.48;62.33;99526.00;7304868;19;129392;-39
2023/08/14 09:07:46;;;;;;;40.70;8.80;;;;;;;24.45;62.17;99525.34;7301383;19;130166;-41
2023/08/14 09:10:11;;;;;;;65.33;11.03;;;;;;;24.46;62.12;99532.22;7305975;19;129628;-37
2023/08/14 09:12:36;;;;;;;58.10;10.30;;;;;;;24.46;61.82;99531.41;7306963;19;129063;-39
2023/08/14 09:15:05;;;;;;;53.37;9.60;;;;;;;24.45;62.57;99538.47;7306690;19;129368;-38
2023/08/14 09:17:31;;;;;;;50.13;9.93;;;;;;;24.43;61.93;99543.06;7305791;19;130688;-38
2023/08/14 09:19:56;;;;;;;41.25;8.15;;;;;;;24.43;62.48;99537.81;7304165;19;129304;-43
2023/08/14 09:22:22;;;;;;;75.03;10.50;;;;;;;24.44;62.09;99528.91;7304543;19;130019;-37
2023/08/14 09:24:48;;;;;;;48.13;8.97;;;;;;;24.44;62.45;99539.44;7305396;19;128952;-36
2023/08/14 09:27:15;;;;;;;60.83;9.90;;;;;;;24.45;61.77;99535.00;7303527;19;130955;-40
2023/08/14 09:29:41;;;;;;;;;;;;;;;24.58;62.26;99529.31;7307726;19;130178;-33
2023/08/14 09:32:06;;;;;;;34.83;8.00;;;;;;;24.48;62.33;99532.06;7304241;19;129568;-39
2023/08/14 09:34:31;;;;;;;113.00;13.47;;;;;;;24.46;61.99;99542.72;7309755;19;130977;-35
2023/08/14 09:36:58;;;;;;;51.17;8.52;;;;;;;24.48;62.31;99534.69;7310681;19;129128;-39
2023/08/14 09:39:24;;;;;;;57.28;9.68;;;;;;;24.45;62.48;99535.84;7310613;19;129633;-44
2023/08/14 09:41:49;;;;;;;59.47;9.17;;;;;;;24.44;62.34;99534.19;7309474;19;129123;-44
2023/08/14 09:44:18;;;;;;;32.77;7.40;;;;;;;24.39;62.26;99519.91;7312691;19;129003;-36
2023/08/14 09:46:43;;;;;;;57.17;8.05;;;;;;;24.44;61.87;99528.13;7312476;19;129223;-40
2023/08/14 09:49:09;;;;;;;51.03;8.40;;;;;;;24.43;62.16;99522.03;7310999;19;129240;-37
2023/08/14 09:51:35;;;;;;;68.00;9.23;;;;;;;24.43;62.49;99513.31;7312381;19;129158;-42
2023/08/14 09:54:00;;;;;;;76.40;10.50;;;;;;;24.44;61.87;99512.34;7313596;19;129655;-39
2023/08/14 09:56:26;;;;;;;107.87;12.67;;;;;;;24.40;61.75;99509.22;7306371;19;129476;-39
2023/08/14 09:58:54;;;;;;;27.10;6.90;;;;;;;24.43;62.60;99516.78;7311894;19;129202;-34
2023/08/14 10:01:21;;;;;;;51.78;7.95;;;;;;;24.42;62.18;99520.41;7311446;19;129492;-40
2023/08/14 10:03:53;;;;;;;35.97;7.00;;;;;;;24.42;62.38;99519.56;7311684;19;129267;-37
2023/08/14 10:06:23;;;;;;;34.80;6.88;;;;;;;24.43;62.79;99521.19;7312408;19;130337;-44
2023/08/14 10:08:51;;;;;;;36.00;6.97;;;;;;;24.42;61.89;99522.19;7310085;19;130535;-35
2023/08/14 10:11:17;;;;;;;51.13;7.55;;;;;;;24.43;62.05;99519.41;7311574;19;129122;-41
2023/08/14 10:13:45;;;;;;;;;;;;;;;24.56;62.08;99512.88;7313863;19;129521;-36
2023/08/14 10:16:16;;;;;;;46.97;7.70;;;;;;;24.44;62.73;99510.53;7310545;19;129869;-41
2023/08/14 10:18:45;;;;;;;38.33;7.50;;;;;;;24.42;62.86;99503.81;7309729;19;129251;-37
2023/08/14 10:21:14;;;;;;;48.03;7.65;;;;;;;24.44;62.10;99507.09;7311803;19;129398;-37
2023/08/14 10:23:40;;;;;;;88.97;10.60;;;;;;;24.42;62.15;99506.44;7308578;19;129808;-37
2023/08/14 10:26:07;;;;;;;36.63;6.50;;;;;;;24.45;61.92;99509.56;7312851;19;129492;-39
2023/08/14 10:28:33;;;;;;;67.82;8.73;;;;;;;24.43;62.16;99506.25;7310739;19;130713;-39
2023/08/14 10:30:59;;;;;;;36.83;7.10;;;;;;;24.43;62.08;99506.25;7314447;19;129089;-35
2023/08/14 10:33:25;;;;;;;65.95;7.97;;;;;;;24.45;62.17;99503.47;7312464;19;130152;-38
2023/08/14 10:35:57;;;;;;;45.58;7.43;;;;;;;24.44;62.35;99505.28;7309035;19;129956;-42
2023/08/14 10:38:38;;;;;;;48.83;7.80;;;;;;;24.35;62.09;99487.84;7310371;19;129369;-41
2023/08/14 10:41:08;;;;;;;33.53;6.47;;;;;;;24.41;62.11;99495.09;7308390;19;129473;-41
2023/08/14 10:43:33;;;;;;;71.22;9.27;;;;;;;24.43;62.17;99495.75;7307885;19;129180;-41
2023/08/14 10:45:59;;;;;;;45.27;7.40;;;;;;;24.44;61.79;99494.75;7309972;19;129644;-41
2023/08/14 10:48:24;;;;;;;37.20;6.53;;;;;;;24.41;62.56;99497.72;7310295;19;129898;-33
2023/08/14 10:51:02;;;;;;;55.70;7.43;;;;;;;24.48;62.21;99502.34;7311521;19;129912;-38
2023/08/14 10:53:29;;;;;;;;;;;;;;;24.57;62.24;99490.84;7308944;19;129234;-35
2023/08/14 10:55:55;;;;;;;42.50;6.50;;;;;;;24.48;61.83;99499.72;7306656;19;129075;-34
2023/08/14 10:58:32;;;;;;;47.13;6.90;;;;;;;24.47;62.17;99498.88;7310617;19;129607;-36
2023/08/14 11:01:12;;;;;;;47.63;7.10;;;;;;;24.48;62.86;99502.34;7311985;19;128969;-43
2023/08/14 11:04:03;;;;;;;48.10;7.10;;;;;;;24.48;62.44;99502.34;7311385;19;129293;-35
2023/08/14 11:07:07;;;;;;;38.58;6.68;;;;;;;24.48;62.58;99497.09;7309289;19;130440;-36
2023/08/14 11:09:34;;;;;;;56.80;7.47;;;;;;;24.44;62.16;99497.38;7311597;19;129333;-36
2023/08/14 11:12:07;;;;;;;;;;;;;;;24.55;62.13;99493.66;7307392;19;129423;-36
2023/08/14 11:14:35;;;;;;;99.57;10.75;;;;;;;24.45;62.31;99496.44;7308963;19;130074;-35